Time;durP1;ratioP1;P1;durP2;ratioP2;P2;SDS_P1;SDS_P2;PMS_P1;PMS_P2;Temp;Humidity;BMP_temperature;BMP_pressure;BME280_temperature;BME280_humidity;BME280_pressure;Samples;Min_cycle;Max_cycle;Signal;HPM_P1;HPM_P2
2022/02/05 00:02:33;;;;;;;56.88;25.95;;;;;;;;;;5095468;28;20020;-35
2022/02/05 00:04:59;;;;;;;52.75;26.25;;;;;;;;;;5095749;28;20021;-37
2022/02/05 00:07:27;;;;;;;48.55;25.40;;;;;;;;;;5095552;28;20059;-35
2022/02/05 00:16:11;;;;;;;56.63;26.17;;;;;;;;;;5069526;28;20044;-34
2022/02/05 00:43:05;;;;;;;54.70;24.85;;;;;;;;;;5095647;28;20474;-35
2022/02/05 00:45:34;;;;;;;53.25;24.40;;;;;;;;;;5095417;28;20059;-35
2022/02/05 00:48:01;;;;;;;56.50;25.20;;;;;;;;;;5095578;28;20023;-35
2022/02/05 00:50:28;;;;;;;47.53;23.20;;;;;;;;;;5094141;28;20458;-35
2022/02/05 00:53:09;;;;;;;53.13;23.77;;;;;;;;;;5094097;28;20107;-36
2022/02/05 00:55:39;;;;;;;55.30;24.30;;;;;;;;;;5093259;28;20035;-35
2022/02/05 00:58:05;;;;;;;;;;;;;;;;;;5094508;28;20036;-35
2022/02/05 01:00:31;;;;;;;56.53;24.95;;;;;;;;;;5095315;28;19908;-35
2022/02/05 01:02:57;;;;;;;60.17;25.75;;;;;;;;;;5093926;28;20718;-35
2022/02/05 01:05:22;;;;;;;61.67;27.95;;;;;;;;;;5093900;28;20016;-36
2022/02/05 01:07:48;;;;;;;51.97;24.42;;;;;;;;;;5094889;28;20474;-35
2022/02/05 01:10:14;;;;;;;60.00;25.42;;;;;;;;;;5093983;28;20466;-35
2022/02/05 01:12:43;;;;;;;51.17;25.13;;;;;;;;;;5093845;28;20055;-35
2022/02/05 01:15:09;;;;;;;65.45;28.52;;;;;;;;;;5095198;28;20050;-35
2022/02/05 01:17:46;;;;;;;59.78;28.90;;;;;;;;;;5094975;28;20035;-35
2022/02/05 01:20:41;;;;;;;64.30;26.42;;;;;;;;;;5093350;28;20020;-35
2022/02/05 01:23:04;;;;;;;73.47;29.13;;;;;;;;;;5094591;28;20604;-35
2022/02/05 01:25:35;;;;;;;68.72;27.42;;;;;;;;;;5094736;28;20095;-35
2022/02/05 01:28:08;;;;;;;73.95;27.98;;;;;;;;;;5093369;28;20031;-35
2022/02/05 01:30:37;;;;;;;69.00;30.00;;;;;;;;;;5093039;28;20066;-35
2022/02/05 01:33:21;;;;;;;66.88;27.30;;;;;;;;;;5093452;28;20478;-35
2022/02/05 01:39:19;;;;;;;57.90;24.02;;;;;;;;;;5093388;28;20077;-35
2022/02/05 01:52:28;;;;;;;55.13;23.83;;;;;;;;;;5094454;28;20020;-35
2022/02/05 01:55:11;;;;;;;49.00;20.48;;;;;;;;;;5094240;28;20032;-35
2022/02/05 01:57:55;;;;;;;45.40;22.33;;;;;;;;;;5092776;28;20107;-35
2022/02/05 02:14:25;;;;;;;53.00;26.15;;;;;;;;;;5093899;28;20028;-35
2022/02/05 02:19:26;;;;;;;65.22;26.02;;;;;;;;;;5093828;28;20475;-35
2022/02/05 02:22:01;;;;;;;67.10;26.85;;;;;;;;;;5092540;28;20085;-35
2022/02/05 02:29:55;;;;;;;53.55;24.98;;;;;;;;;;5093448;28;20059;-35
2022/02/05 02:32:14;;;;;;;59.65;26.95;;;;;;;;;;5093238;28;20035;-35
2022/02/05 02:34:45;;;;;;;59.45;25.50;;;;;;;;;;5092278;28;20028;-35
2022/02/05 02:37:13;;;;;;;68.60;26.08;;;;;;;;;;5091849;28;20552;-35
2022/02/05 02:40:08;;;;;;;60.83;25.05;;;;;;;;;;5092982;28;20040;-35
2022/02/05 02:42:24;;;;;;;54.47;25.55;;;;;;;;;;5092998;28;20486;-35
2022/02/05 02:44:49;;;;;;;56.17;25.98;;;;;;;;;;5093440;28;20024;-35
2022/02/05 02:47:15;;;;;;;58.75;25.20;;;;;;;;;;5092097;28;20055;-35
2022/02/05 02:49:54;;;;;;;64.40;26.38;;;;;;;;;;5092121;28;20512;-35
2022/02/05 02:57:58;;;;;;;61.60;24.88;;;;;;;;;;5093147;28;20034;-35
2022/02/05 03:00:25;;;;;;;56.20;27.40;;;;;;;;;;5091898;28;20375;-36
2022/02/05 03:02:50;;;;;;;54.88;25.45;;;;;;;;;;5091674;28;20035;-35
2022/02/05 03:05:15;;;;;;;66.20;25.73;;;;;;;;;;5093244;28;20449;-35
2022/02/05 03:07:40;;;;;;;55.08;26.17;;;;;;;;;;5092999;28;20022;-35
2022/02/05 03:10:06;;;;;;;59.80;25.42;;;;;;;;;;5093172;28;20032;-35
2022/02/05 03:12:32;;;;;;;50.75;22.92;;;;;;;;;;5092884;28;20103;-35
2022/02/05 03:14:57;;;;;;;48.08;22.98;;;;;;;;;;5092914;28;20012;-35
2022/02/05 03:17:25;;;;;;;53.17;24.13;;;;;;;;;;5093614;28;20012;-35
2022/02/05 03:19:51;;;;;;;46.88;22.15;;;;;;;;;;5095946;28;20351;-35
2022/02/05 03:22:18;;;;;;;50.15;22.88;;;;;;;;;;5095800;28;20028;-35
2022/02/05 03:24:43;;;;;;;53.08;23.92;;;;;;;;;;5097447;28;20070;-35
2022/02/05 03:27:11;;;;;;;50.00;22.98;;;;;;;;;;5096980;28;20459;-35
2022/02/05 03:29:36;;;;;;;40.35;20.75;;;;;;;;;;5095524;28;20399;-35
2022/02/05 03:32:02;;;;;;;42.35;18.60;;;;;;;;;;5096768;28;20023;-34
2022/02/05 03:34:27;;;;;;;36.97;19.13;;;;;;;;;;5096900;28;20030;-34
2022/02/05 03:36:52;;;;;;;39.58;19.10;;;;;;;;;;5095431;28;20030;-35
2022/02/05 03:39:17;;;;;;;39.55;19.83;;;;;;;;;;5096670;28;20119;-34
2022/02/05 03:41:43;;;;;;;38.63;19.10;;;;;;;;;;5096852;28;20016;-35
2022/02/05 03:44:08;;;;;;;41.63;19.15;;;;;;;;;;5096716;28;20447;-35
2022/02/05 03:46:33;;;;;;;43.08;18.88;;;;;;;;;;5096448;28;20024;-35
2022/02/05 03:48:59;;;;;;;35.53;18.33;;;;;;;;;;5095521;28;20024;-35
2022/02/05 03:51:24;;;;;;;37.28;17.45;;;;;;;;;;5096725;28;20526;-35
2022/02/05 03:53:50;;;;;;;41.53;20.27;;;;;;;;;;5096503;28;20022;-35
2022/02/05 03:56:15;;;;;;;39.05;19.33;;;;;;;;;;5096391;28;20045;-35
2022/02/05 03:58:41;;;;;;;35.53;19.13;;;;;;;;;;5096291;28;20043;-35
2022/02/05 04:01:06;;;;;;;39.38;19.25;;;;;;;;;;5096130;28;20020;-35
2022/02/05 04:03:31;;;;;;;36.72;18.90;;;;;;;;;;5096685;28;20031;-35
2022/02/05 04:05:58;;;;;;;48.00;19.60;;;;;;;;;;5095123;28;20493;-35
2022/02/05 04:08:23;;;;;;;39.58;18.08;;;;;;;;;;5096444;28;20024;-35
2022/02/05 04:10:59;;;;;;;41.72;19.75;;;;;;;;;;5096249;28;20111;-35
2022/02/05 04:16:30;;;;;;;32.65;18.20;;;;;;;;;;5096222;28;20030;-35
2022/02/05 04:18:55;;;;;;;35.60;17.38;;;;;;;;;;5095671;28;20054;-34
2022/02/05 04:21:21;;;;;;;38.78;17.77;;;;;;;;;;5095984;28;20020;-35
2022/02/05 04:23:47;;;;;;;35.75;17.85;;;;;;;;;;5095994;28;20537;-35
2022/02/05 04:26:13;;;;;;;33.45;18.23;;;;;;;;;;5095628;28;20027;-36
2022/02/05 04:28:39;;;;;;;36.17;18.73;;;;;;;;;;5094457;28;20413;-35
2022/02/05 04:31:04;;;;;;;34.58;17.67;;;;;;;;;;5095895;28;20028;-35
2022/02/05 04:33:29;;;;;;;30.33;17.08;;;;;;;;;;5094608;28;20051;-35
2022/02/05 04:35:54;;;;;;;35.45;18.27;;;;;;;;;;5095794;28;20382;-35
2022/02/05 04:38:21;;;;;;;38.60;18.67;;;;;;;;;;5095320;28;20493;-35
2022/02/05 04:41:02;;;;;;;36.30;19.77;;;;;;;;;;5094238;28;20107;-38
2022/02/05 05:02:28;;;;;;;36.13;16.88;;;;;;;;;;5095388;28;20035;-35
2022/02/05 05:07:55;;;;;;;37.47;18.65;;;;;;;;;;5095149;28;20129;-34
2022/02/05 05:10:37;;;;;;;36.15;18.50;;;;;;;;;;5094739;28;20035;-34
2022/02/05 05:13:18;;;;;;;35.60;17.35;;;;;;;;;;5094862;28;20032;-34
2022/02/05 05:21:08;;;;;;;33.67;18.05;;;;;;;;;;5095132;28;20035;-35
2022/02/05 05:23:33;;;;;;;35.63;19.25;;;;;;;;;;5076737;28;20020;-35
2022/02/05 05:25:59;;;;;;;37.70;17.50;;;;;;;;;;5095150;28;20054;-35
2022/02/05 05:28:24;;;;;;;42.05;17.95;;;;;;;;;;5076447;28;20530;-35
2022/02/05 05:30:49;;;;;;;35.92;17.35;;;;;;;;;;5076310;28;20020;-35
2022/02/05 05:33:14;;;;;;;33.83;16.38;;;;;;;;;;5094403;28;20061;-35
2022/02/05 05:35:40;;;;;;;28.17;15.57;;;;;;;;;;5094367;28;20179;-35
2022/02/05 05:38:06;;;;;;;32.08;16.80;;;;;;;;;;5094534;28;20052;-35
2022/02/05 05:40:31;;;;;;;33.35;15.93;;;;;;;;;;5093718;28;20516;-35
2022/02/05 05:43:04;;;;;;;36.15;17.63;;;;;;;;;;5076189;28;20027;-35
2022/02/05 05:46:03;;;;;;;35.70;17.48;;;;;;;;;;5075988;28;20031;-35
2022/02/05 05:48:31;;;;;;;36.53;18.80;;;;;;;;;;5093951;28;20043;-35
2022/02/05 05:50:59;;;;;;;36.03;17.13;;;;;;;;;;5076290;28;20024;-35
2022/02/05 05:53:25;;;;;;;36.13;18.65;;;;;;;;;;5076169;28;20023;-35
2022/02/05 05:55:50;;;;;;;37.63;17.85;;;;;;;;;;5075917;28;20020;-34
2022/02/05 05:58:17;;;;;;;33.67;17.58;;;;;;;;;;5093766;28;20032;-34
2022/02/05 06:00:43;;;;;;;34.72;17.75;;;;;;;;;;5076135;28;20467;-34
2022/02/05 06:03:08;;;;;;;39.25;18.23;;;;;;;;;;5094101;28;20024;-34
2022/02/05 06:05:33;;;;;;;35.00;17.70;;;;;;;;;;5094246;28;20031;-34
2022/02/05 06:07:59;;;;;;;35.78;17.95;;;;;;;;;;5094045;28;20374;-34
2022/02/05 06:10:24;;;;;;;39.25;19.00;;;;;;;;;;5075784;28;20459;-34
2022/02/05 06:12:50;;;;;;;42.78;18.98;;;;;;;;;;5093626;28;20028;-35
2022/02/05 06:15:15;;;;;;;42.25;20.90;;;;;;;;;;5094518;28;20025;-34
2022/02/05 06:17:40;;;;;;;35.17;19.70;;;;;;;;;;5079705;28;20110;-35
2022/02/05 06:20:07;;;;;;;37.83;20.40;;;;;;;;;;5095852;28;20189;-35
2022/02/05 06:22:33;;;;;;;45.08;20.55;;;;;;;;;;5113892;28;20062;-34
2022/02/05 06:24:58;;;;;;;41.90;20.38;;;;;;;;;;5114040;28;20043;-38
2022/02/05 06:27:23;;;;;;;41.22;20.00;;;;;;;;;;5113760;28;20059;-35
2022/02/05 06:29:48;;;;;;;41.17;20.98;;;;;;;;;;5095509;28;20022;-34
2022/02/05 06:32:17;;;;;;;36.30;19.05;;;;;;;;;;5095713;28;20028;-34
2022/02/05 06:34:43;;;;;;;44.60;21.73;;;;;;;;;;5095732;28;20026;-34
2022/02/05 06:37:08;;;;;;;37.53;19.20;;;;;;;;;;5113947;28;20047;-34
2022/02/05 06:39:33;;;;;;;49.65;21.73;;;;;;;;;;5095376;28;20038;-34
2022/02/05 06:41:58;;;;;;;43.92;21.83;;;;;;;;;;5095693;28;20072;-35
2022/02/05 06:44:24;;;;;;;45.88;22.48;;;;;;;;;;5095136;28;20399;-34
2022/02/05 06:46:49;;;;;;;48.83;23.58;;;;;;;;;;5095571;28;20027;-34
2022/02/05 06:49:14;;;;;;;41.75;21.30;;;;;;;;;;5113769;28;20077;-34
2022/02/05 06:51:40;;;;;;;41.65;21.60;;;;;;;;;;5112979;28;20023;-34
2022/02/05 06:54:05;;;;;;;44.78;22.60;;;;;;;;;;5095200;28;20059;-34
2022/02/05 06:56:30;;;;;;;42.85;21.25;;;;;;;;;;5113505;28;20023;-34
2022/02/05 06:58:55;;;;;;;39.17;19.85;;;;;;;;;;5113152;28;20031;-34
2022/02/05 07:01:21;;;;;;;38.20;19.05;;;;;;;;;;5095385;28;20030;-34
2022/02/05 07:03:46;;;;;;;37.05;20.17;;;;;;;;;;5095314;28;20027;-34
2022/02/05 07:06:11;;;;;;;37.22;18.83;;;;;;;;;;5095308;28;20429;-34
2022/02/05 07:08:37;;;;;;;40.03;20.42;;;;;;;;;;5113321;28;20035;-34
2022/02/05 07:11:02;;;;;;;46.70;22.30;;;;;;;;;;5095113;28;20568;-34
2022/02/05 07:13:27;;;;;;;46.90;23.23;;;;;;;;;;5113085;28;20020;-34
2022/02/05 07:16:02;;;;;;;50.17;23.85;;;;;;;;;;5113389;28;20370;-34
2022/02/05 07:21:39;;;;;;;43.00;22.13;;;;;;;;;;5067829;28;20035;-34
2022/02/05 07:29:14;;;;;;;43.33;21.08;;;;;;;;;;5113336;28;20027;-35
2022/02/05 07:31:43;;;;;;;38.45;20.42;;;;;;;;;;5113023;28;20032;-35
2022/02/05 07:34:09;;;;;;;37.38;18.88;;;;;;;;;;5113104;28;20080;-34
2022/02/05 07:36:34;;;;;;;34.42;17.45;;;;;;;;;;5112775;28;20019;-35
2022/02/05 07:38:59;;;;;;;29.27;15.77;;;;;;;;;;5094553;28;20380;-35
2022/02/05 07:41:25;;;;;;;28.83;16.83;;;;;;;;;;5113181;28;20046;-35
2022/02/05 07:43:50;;;;;;;30.60;17.98;;;;;;;;;;5113098;28;20374;-35
2022/02/05 07:46:16;;;;;;;27.92;16.23;;;;;;;;;;5094696;28;20020;-35
2022/02/05 07:48:41;;;;;;;25.85;16.58;;;;;;;;;;5113097;28;20016;-35
2022/02/05 07:51:07;;;;;;;30.08;17.25;;;;;;;;;;5112749;28;20028;-36
2022/02/05 07:53:32;;;;;;;32.05;17.15;;;;;;;;;;5113134;28;20026;-35
2022/02/05 07:55:58;;;;;;;29.35;16.33;;;;;;;;;;5094880;28;20499;-35
2022/02/05 07:58:23;;;;;;;29.92;16.10;;;;;;;;;;5112803;28;20126;-35
2022/02/05 08:00:49;;;;;;;26.73;15.50;;;;;;;;;;5094862;28;20355;-35
2022/02/05 08:03:14;;;;;;;27.63;15.50;;;;;;;;;;5113273;28;20024;-35
2022/02/05 08:05:40;;;;;;;28.52;14.57;;;;;;;;;;5098129;28;20057;-36
2022/02/05 08:08:09;;;;;;;27.80;14.98;;;;;;;;;;5115042;28;20100;-35
2022/02/05 08:10:38;;;;;;;24.08;14.27;;;;;;;;;;5115719;28;20027;-35
2022/02/05 08:13:03;;;;;;;24.03;14.07;;;;;;;;;;5112022;28;20032;-35
2022/02/05 08:15:30;;;;;;;23.05;14.25;;;;;;;;;;5111088;28;20153;-35
2022/02/05 08:17:56;;;;;;;26.52;15.07;;;;;;;;;;5116097;28;20027;-34
2022/02/05 08:20:22;;;;;;;33.30;15.23;;;;;;;;;;5116184;28;20016;-34
2022/02/05 08:22:47;;;;;;;28.08;14.85;;;;;;;;;;5116230;28;20023;-34
2022/02/05 08:25:13;;;;;;;25.13;15.02;;;;;;;;;;5116508;28;20011;-35
2022/02/05 08:27:40;;;;;;;30.55;14.55;;;;;;;;;;5096971;28;20019;-34
2022/02/05 08:30:07;;;;;;;23.60;13.82;;;;;;;;;;5115802;28;20113;-34
2022/02/05 08:32:32;;;;;;;21.42;11.50;;;;;;;;;;5113311;28;20081;-34
2022/02/05 08:35:00;;;;;;;20.42;11.35;;;;;;;;;;5094317;28;20020;-34
2022/02/05 08:37:25;;;;;;;18.33;10.48;;;;;;;;;;5107183;28;20044;-34
2022/02/05 08:39:51;;;;;;;17.75;10.07;;;;;;;;;;5077082;28;20039;-34
2022/02/05 08:42:16;;;;;;;18.98;10.35;;;;;;;;;;5095303;28;20391;-34
2022/02/05 08:44:42;;;;;;;21.10;10.45;;;;;;;;;;5114002;28;20027;-38
2022/02/05 08:47:07;;;;;;;19.40;10.65;;;;;;;;;;5115578;28;20032;-35
2022/02/05 08:49:32;;;;;;;23.35;11.05;;;;;;;;;;5107486;28;20016;-34
2022/02/05 08:52:00;;;;;;;19.33;11.00;;;;;;;;;;5095007;28;20024;-34
2022/02/05 08:54:26;;;;;;;22.58;11.15;;;;;;;;;;5077502;28;20506;-34
2022/02/05 08:56:53;;;;;;;21.02;11.98;;;;;;;;;;5095364;28;20024;-34
2022/02/05 08:59:19;;;;;;;18.35;10.60;;;;;;;;;;5076667;28;20039;-35
2022/02/05 09:06:46;;;;;;;19.75;10.23;;;;;;;;;;5115783;28;20157;-34
2022/02/05 09:09:33;;;;;;;22.98;10.50;;;;;;;;;;5114645;28;20089;-34
2022/02/05 09:14:45;;;;;;;19.10;10.50;;;;;;;;;;5113353;28;20485;-34
2022/02/05 09:17:11;;;;;;;17.73;9.57;;;;;;;;;;5115507;28;20121;-34
2022/02/05 09:19:36;;;;;;;15.45;8.70;;;;;;;;;;5115375;28;20065;-34
2022/02/05 09:22:03;;;;;;;16.85;8.27;;;;;;;;;;5115371;28;20400;-34
2022/02/05 09:24:28;;;;;;;11.98;7.20;;;;;;;;;;5115096;28;20020;-34
2022/02/05 09:27:03;;;;;;;11.27;6.80;;;;;;;;;;5096836;28;20093;-34
2022/02/05 09:29:32;;;;;;;21.48;8.43;;;;;;;;;;5114877;28;20016;-34
2022/02/05 09:31:57;;;;;;;10.60;6.40;;;;;;;;;;5115219;28;20028;-34
2022/02/05 09:34:22;;;;;;;8.70;5.95;;;;;;;;;;5096674;28;20027;-35
2022/02/05 09:36:48;;;;;;;11.52;5.60;;;;;;;;;;5114838;28;20371;-34
2022/02/05 09:39:13;;;;;;;7.88;4.60;;;;;;;;;;5096465;28;20038;-34
2022/02/05 09:41:39;;;;;;;8.63;5.10;;;;;;;;;;5109893;28;20062;-34
2022/02/05 09:44:05;;;;;;;8.52;5.00;;;;;;;;;;5076134;28;20486;-34
2022/02/05 09:46:30;;;;;;;7.68;4.40;;;;;;;;;;5097196;28;20027;-34
2022/02/05 09:48:56;;;;;;;6.93;4.10;;;;;;;;;;5114740;28;20024;-33
2022/02/05 09:51:25;;;;;;;4.97;3.42;;;;;;;;;;5113577;27;20012;-35
2022/02/05 09:53:54;;;;;;;6.47;4.07;;;;;;;;;;5105769;28;20016;-35
2022/02/05 09:56:21;;;;;;;5.85;3.58;;;;;;;;;;5075898;28;20044;-34
2022/02/05 09:58:46;;;;;;;4.55;3.58;;;;;;;;;;5075726;28;20035;-34
2022/02/05 10:01:16;;;;;;;5.80;3.20;;;;;;;;;;5105152;28;20434;-34
2022/02/05 10:03:42;;;;;;;5.57;3.50;;;;;;;;;;5114438;28;20020;-34
2022/02/05 10:06:09;;;;;;;3.95;3.03;;;;;;;;;;5096055;28;20023;-34
2022/02/05 10:08:35;;;;;;;4.32;3.08;;;;;;;;;;5113863;28;20019;-34
2022/02/05 10:11:01;;;;;;;4.15;2.75;;;;;;;;;;5113712;28;20020;-35
2022/02/05 10:13:30;;;;;;;6.53;2.78;;;;;;;;;;5091238;28;20526;-39
2022/02/05 10:15:57;;;;;;;2.60;2.15;;;;;;;;;;5109570;27;20027;-35
2022/02/05 10:18:24;;;;;;;4.07;1.90;;;;;;;;;;5105579;28;20079;-35
2022/02/05 10:20:50;;;;;;;10.00;2.22;;;;;;;;;;5113013;28;20032;-38
2022/02/05 10:23:15;;;;;;;4.63;2.10;;;;;;;;;;5101489;28;20074;-41
2022/02/05 10:25:41;;;;;;;2.75;1.90;;;;;;;;;;5111141;28;20088;-36
2022/02/05 10:28:10;;;;;;;7.03;1.90;;;;;;;;;;5110663;28;20051;-35
2022/02/05 10:30:36;;;;;;;4.43;1.60;;;;;;;;;;5112627;28;20024;-35
2022/02/05 10:33:09;;;;;;;4.38;1.75;;;;;;;;;;5112880;28;20102;-35
2022/02/05 10:35:43;;;;;;;188.20;10.55;;;;;;;;;;5102109;28;20419;-35
2022/02/05 10:43:35;;;;;;;13.02;1.48;;;;;;;;;;5063337;28;20398;-35
2022/02/05 10:46:03;;;;;;;7.32;1.00;;;;;;;;;;5089159;28;20111;-35
2022/02/05 10:48:29;;;;;;;23.70;1.65;;;;;;;;;;5083928;28;20043;-35
2022/02/05 10:50:56;;;;;;;4.03;1.38;;;;;;;;;;5087923;28;20024;-36
2022/02/05 10:53:27;;;;;;;4.78;0.75;;;;;;;;;;5091435;28;20103;-35
2022/02/05 10:56:12;;;;;;;2.10;0.85;;;;;;;;;;5084823;28;20015;-39
2022/02/05 11:07:12;;;;;;;1.98;0.63;;;;;;;;;;5092203;28;20421;-35
2022/02/05 11:09:39;;;;;;;2.72;0.80;;;;;;;;;;5090797;28;20419;-36
2022/02/05 11:20:09;;;;;;;1.80;0.75;;;;;;;;;;5091795;28;20111;-34
2022/02/05 11:22:55;;;;;;;3.83;0.70;;;;;;;;;;5090559;28;20038;-34
2022/02/05 11:25:21;;;;;;;3.38;0.88;;;;;;;;;;5090601;28;20064;-34
2022/02/05 11:27:47;;;;;;;2.50;0.90;;;;;;;;;;5092577;28;20051;-33
2022/02/05 11:30:34;;;;;;;3.38;0.70;;;;;;;;;;5089007;28;20020;-34
2022/02/05 11:33:06;;;;;;;9.38;1.38;;;;;;;;;;5078939;28;20035;-34
2022/02/05 11:35:40;;;;;;;7.25;2.65;;;;;;;;;;5090494;28;20047;-38
2022/02/05 11:38:06;;;;;;;5.22;0.82;;;;;;;;;;5103226;28;20055;-33
2022/02/05 11:40:53;;;;;;;1.90;1.08;;;;;;;;;;5115847;28;20023;-37
2022/02/05 11:43:19;;;;;;;4.57;1.30;;;;;;;;;;5111539;28;20032;-36
2022/02/05 11:45:45;;;;;;;3.28;0.90;;;;;;;;;;5112096;28;20026;-33
2022/02/05 11:48:28;;;;;;;3.80;0.77;;;;;;;;;;5119056;27;20019;-33
2022/02/05 11:51:08;;;;;;;12.25;1.08;;;;;;;;;;5137072;27;20027;-33
2022/02/05 11:53:53;;;;;;;1.83;0.70;;;;;;;;;;5137191;27;20019;-36
2022/02/05 11:56:18;;;;;;;10.25;0.75;;;;;;;;;;5118852;27;20053;-33
2022/02/05 11:58:57;;;;;;;11.60;1.48;;;;;;;;;;5137426;27;20039;-34
2022/02/05 12:01:33;;;;;;;21.40;1.70;;;;;;;;;;5119126;27;20076;-34
2022/02/05 12:04:09;;;;;;;2.60;0.80;;;;;;;;;;5137249;27;20419;-34
2022/02/05 12:06:51;;;;;;;3.88;0.98;;;;;;;;;;5119031;27;20488;-34
2022/02/05 12:09:35;;;;;;;1.98;0.70;;;;;;;;;;5128262;27;20020;-34
2022/02/05 12:12:18;;;;;;;3.75;0.82;;;;;;;;;;5096301;28;20024;-34
2022/02/05 12:15:02;;;;;;;2.58;0.88;;;;;;;;;;5096080;28;20024;-34
2022/02/05 12:17:38;;;;;;;3.25;0.90;;;;;;;;;;5096283;28;20052;-34
2022/02/05 12:20:09;;;;;;;5.13;1.30;;;;;;;;;;5096272;28;20054;-34
2022/02/05 12:22:53;;;;;;;4.65;0.68;;;;;;;;;;5094673;28;20027;-34
2022/02/05 12:25:21;;;;;;;28.35;2.13;;;;;;;;;;5096166;28;20405;-34
2022/02/05 12:27:46;;;;;;;7.18;0.85;;;;;;;;;;5096038;28;20016;-34
2022/02/05 12:30:27;;;;;;;5.95;0.80;;;;;;;;;;5095906;28;20348;-34
2022/02/05 12:32:56;;;;;;;1.65;0.60;;;;;;;;;;5094545;28;20534;-34
2022/02/05 12:35:21;;;;;;;4.10;0.80;;;;;;;;;;5095627;28;20042;-35
2022/02/05 12:37:46;;;;;;;4.22;1.40;;;;;;;;;;5094278;28;20473;-34
2022/02/05 12:40:12;;;;;;;5.90;2.05;;;;;;;;;;5096354;28;20074;-34
2022/02/05 12:42:39;;;;;;;3.47;0.80;;;;;;;;;;5095972;28;20103;-34
2022/02/05 12:45:10;;;;;;;2.47;0.80;;;;;;;;;;5094360;28;20082;-34
2022/02/05 12:47:40;;;;;;;4.15;0.73;;;;;;;;;;5095580;28;20058;-34
2022/02/05 12:50:13;;;;;;;3.10;0.73;;;;;;;;;;5092948;28;20028;-34
2022/02/05 12:52:38;;;;;;;4.15;0.80;;;;;;;;;;5095557;28;20534;-34
2022/02/05 12:55:04;;;;;;;5.75;0.80;;;;;;;;;;5094394;28;20102;-34
2022/02/05 12:57:30;;;;;;;2.17;0.77;;;;;;;;;;5095447;28;20020;-34
2022/02/05 13:00:02;;;;;;;9.35;1.50;;;;;;;;;;5095285;28;20055;-34
2022/02/05 13:02:29;;;;;;;3.17;1.02;;;;;;;;;;5095274;28;20047;-34
2022/02/05 13:04:55;;;;;;;2.42;1.15;;;;;;;;;;5093862;28;20028;-34
2022/02/05 13:07:24;;;;;;;4.63;1.60;;;;;;;;;;5095320;28;20020;-35
2022/02/05 13:09:52;;;;;;;3.97;1.10;;;;;;;;;;5095148;28;20057;-34
2022/02/05 13:12:21;;;;;;;4.60;1.88;;;;;;;;;;5095062;28;20524;-34
2022/02/05 13:14:57;;;;;;;3.25;1.13;;;;;;;;;;5093875;28;20088;-33
2022/02/05 13:17:30;;;;;;;4.97;1.00;;;;;;;;;;5093652;28;20467;-34
2022/02/05 13:25:44;;;;;;;2.50;1.10;;;;;;;;;;5095087;28;20168;-34
2022/02/05 13:41:44;;;;;;;4.30;0.93;;;;;;;;;;5094687;28;20081;-33
2022/02/05 13:44:14;;;;;;;8.15;1.17;;;;;;;;;;5093203;28;20028;-34
2022/02/05 13:46:40;;;;;;;9.35;1.27;;;;;;;;;;5094180;28;20483;-34
2022/02/05 13:49:12;;;;;;;2.55;1.00;;;;;;;;;;5094556;28;20023;-35
2022/02/05 13:51:37;;;;;;;6.55;1.20;;;;;;;;;;5094173;28;20493;-35
2022/02/05 13:54:03;;;;;;;3.58;1.10;;;;;;;;;;5094597;28;20016;-34
2022/02/05 13:56:32;;;;;;;2.08;1.00;;;;;;;;;;5092941;28;20020;-35
2022/02/05 13:58:57;;;;;;;5.22;1.30;;;;;;;;;;5092779;28;20127;-35
2022/02/05 14:01:33;;;;;;;2.95;1.30;;;;;;;;;;5092184;28;20687;-34
2022/02/05 14:04:31;;;;;;;5.60;1.50;;;;;;;;;;5092930;28;20522;-34
2022/02/05 14:06:57;;;;;;;19.55;1.80;;;;;;;;;;5059940;28;20059;-35
2022/02/05 14:09:23;;;;;;;185.23;9.30;;;;;;;;;;5093967;28;20016;-35
2022/02/05 14:11:48;;;;;;;6.25;1.25;;;;;;;;;;5092495;28;20020;-34
2022/02/05 14:14:20;;;;;;;11.15;1.75;;;;;;;;;;5094159;28;20451;-34
2022/02/05 14:16:46;;;;;;;9.77;1.52;;;;;;;;;;5092572;28;20031;-35
2022/02/05 14:19:24;;;;;;;13.70;2.20;;;;;;;;;;5092513;28;20039;-34
2022/02/05 14:21:52;;;;;;;11.40;1.70;;;;;;;;;;5093759;28;20031;-34
2022/02/05 14:24:23;;;;;;;6.03;1.50;;;;;;;;;;5093569;28;20032;-34
2022/02/05 14:29:20;;;;;;;5.15;1.08;;;;;;;;;;5093775;28;20062;-34
2022/02/05 14:31:50;;;;;;;6.82;1.48;;;;;;;;;;5093487;28;20020;-34
2022/02/05 14:42:11;;;;;;;4.50;1.25;;;;;;;;;;5093304;28;20040;-34
2022/02/05 14:44:37;;;;;;;4.45;1.15;;;;;;;;;;5093365;28;20027;-34
2022/02/05 14:47:03;;;;;;;5.85;1.10;;;;;;;;;;5093696;28;20097;-34
2022/02/05 14:49:29;;;;;;;3.58;0.80;;;;;;;;;;5093181;28;20467;-35
2022/02/05 14:51:56;;;;;;;4.85;1.35;;;;;;;;;;5093487;28;20050;-34
2022/02/05 14:54:22;;;;;;;2.92;1.10;;;;;;;;;;5093389;28;20020;-34
2022/02/05 14:56:47;;;;;;;2.55;1.20;;;;;;;;;;5093339;28;20524;-34
2022/02/05 14:59:12;;;;;;;3.03;1.00;;;;;;;;;;5093481;28;20517;-34
2022/02/05 15:01:38;;;;;;;1.67;0.93;;;;;;;;;;5093460;28;20472;-35
2022/02/05 15:04:03;;;;;;;3.20;1.23;;;;;;;;;;5092924;28;20017;-34
2022/02/05 15:06:31;;;;;;;2.47;1.20;;;;;;;;;;5091971;28;20024;-35
2022/02/05 15:08:58;;;;;;;4.57;1.40;;;;;;;;;;5093062;28;20012;-34
2022/02/05 15:11:25;;;;;;;1.98;1.17;;;;;;;;;;5093072;28;20123;-35
2022/02/05 15:13:52;;;;;;;5.00;1.50;;;;;;;;;;5092246;28;20111;-34
2022/02/05 15:16:18;;;;;;;2.33;1.73;;;;;;;;;;5092931;28;20035;-35
2022/02/05 15:18:52;;;;;;;4.50;1.60;;;;;;;;;;5092845;28;20387;-34
2022/02/05 15:21:17;;;;;;;4.13;1.40;;;;;;;;;;5091708;28;20020;-35
2022/02/05 15:23:42;;;;;;;2.65;1.40;;;;;;;;;;5092922;28;20050;-35
2022/02/05 15:26:08;;;;;;;3.22;1.70;;;;;;;;;;5091757;28;20023;-34
2022/02/05 15:28:33;;;;;;;4.70;1.85;;;;;;;;;;5091596;28;20097;-35
2022/02/05 15:31:00;;;;;;;4.22;1.70;;;;;;;;;;5092687;28;20020;-35
2022/02/05 15:33:25;;;;;;;4.45;1.85;;;;;;;;;;5091746;28;20055;-34
2022/02/05 15:35:53;;;;;;;5.13;2.47;;;;;;;;;;5091675;28;20043;-35
2022/02/05 15:38:27;;;;;;;5.85;1.90;;;;;;;;;;5091204;28;20138;-34
2022/02/05 15:46:05;;;;;;;5.93;2.50;;;;;;;;;;5092805;28;20028;-34
2022/02/05 15:48:30;;;;;;;4.22;1.40;;;;;;;;;;5092736;28;20133;-34
2022/02/05 15:50:55;;;;;;;3.80;1.70;;;;;;;;;;5092976;28;20024;-34
2022/02/05 15:53:22;;;;;;;2.45;1.80;;;;;;;;;;5092658;28;20476;-34
2022/02/05 15:55:47;;;;;;;3.08;1.58;;;;;;;;;;5092669;28;20062;-34
2022/02/05 15:58:19;;;;;;;1.60;1.20;;;;;;;;;;5090988;28;20040;-35
2022/02/05 16:00:44;;;;;;;1.30;1.10;;;;;;;;;;5091521;28;20070;-34
2022/02/05 16:03:10;;;;;;;3.30;1.38;;;;;;;;;;5091174;28;20024;-35
2022/02/05 16:05:35;;;;;;;3.75;1.30;;;;;;;;;;5092463;28;20016;-34
2022/02/05 16:08:00;;;;;;;2.28;1.10;;;;;;;;;;5092402;28;20023;-34
2022/02/05 16:10:25;;;;;;;3.53;1.83;;;;;;;;;;5092821;28;20027;-34
2022/02/05 16:12:51;;;;;;;1.38;1.27;;;;;;;;;;5091023;28;20025;-34
2022/02/05 16:15:19;;;;;;;8.88;1.88;;;;;;;;;;5091377;28;20031;-34
2022/02/05 16:17:45;;;;;;;4.30;2.05;;;;;;;;;;5092388;28;20028;-34
2022/02/05 16:20:11;;;;;;;8.43;2.05;;;;;;;;;;5092552;28;20032;-34
2022/02/05 16:22:38;;;;;;;4.60;2.28;;;;;;;;;;5092527;28;20034;-34
2022/02/05 16:25:04;;;;;;;7.07;1.92;;;;;;;;;;5094000;28;20012;-35
2022/02/05 16:27:30;;;;;;;5.43;2.15;;;;;;;;;;5095471;28;20031;-34
2022/02/05 16:29:57;;;;;;;4.00;2.40;;;;;;;;;;5095424;28;20020;-34
2022/02/05 16:32:22;;;;;;;5.25;2.58;;;;;;;;;;5096083;28;20316;-34
2022/02/05 16:34:53;;;;;;;9.10;3.42;;;;;;;;;;5095640;28;20016;-34
2022/02/05 16:37:18;;;;;;;11.05;2.55;;;;;;;;;;5095771;28;20051;-34
2022/02/05 16:39:44;;;;;;;9.88;3.95;;;;;;;;;;5095632;28;20043;-34
2022/02/05 16:42:10;;;;;;;5.57;2.85;;;;;;;;;;5095622;28;20024;-35
2022/02/05 16:44:35;;;;;;;7.13;3.05;;;;;;;;;;5095818;28;20053;-34
2022/02/05 16:47:01;;;;;;;7.13;2.58;;;;;;;;;;5094325;28;20099;-34
2022/02/05 16:49:28;;;;;;;4.57;2.47;;;;;;;;;;5095685;28;20204;-34
2022/02/05 16:51:53;;;;;;;8.68;2.17;;;;;;;;;;5095481;28;20019;-34
2022/02/05 16:54:20;;;;;;;7.18;2.10;;;;;;;;;;5095535;28;20016;-34
2022/02/05 16:56:45;;;;;;;6.07;2.28;;;;;;;;;;5095486;28;20039;-34
2022/02/05 16:59:11;;;;;;;5.45;2.08;;;;;;;;;;5095639;28;20456;-35
2022/02/05 17:01:36;;;;;;;10.32;2.13;;;;;;;;;;5095236;28;20368;-36
2022/02/05 17:04:02;;;;;;;5.65;2.00;;;;;;;;;;5093973;28;20174;-33
2022/02/05 17:06:28;;;;;;;6.63;3.10;;;;;;;;;;5094061;28;20020;-34
2022/02/05 17:08:55;;;;;;;6.50;2.45;;;;;;;;;;5094021;28;20024;-35
2022/02/05 17:11:21;;;;;;;3.58;1.77;;;;;;;;;;5095037;28;20020;-35
2022/02/05 17:13:46;;;;;;;17.02;5.65;;;;;;;;;;5093938;28;20031;-34
2022/02/05 17:16:12;;;;;;;8.57;3.63;;;;;;;;;;5093790;28;20016;-34
2022/02/05 17:18:37;;;;;;;10.20;3.67;;;;;;;;;;5094664;28;20116;-34
2022/02/05 17:21:03;;;;;;;117.40;42.80;;;;;;;;;;5094941;28;20020;-34
2022/02/05 17:23:32;;;;;;;80.50;28.30;;;;;;;;;;5094812;28;20023;-34
2022/02/05 17:25:58;;;;;;;53.47;19.52;;;;;;;;;;5094763;28;20024;-35
2022/02/05 17:28:26;;;;;;;43.28;17.10;;;;;;;;;;5094797;28;20442;-34
2022/02/05 17:30:51;;;;;;;28.33;11.25;;;;;;;;;;5094680;28;20020;-34